Time;durP1;ratioP1;P1;durP2;ratioP2;P2;SDS_P1;SDS_P2;PMS_P1;PMS_P2;Temp;Humidity;BMP_temperature;BMP_pressure;BME280_temperature;BME280_humidity;BME280_pressure;Samples;Min_cycle;Max_cycle;Signal;HPM_P1;HPM_P2
2023/01/22 00:01:46;;;;;;;110.30;33.78;;;;;;;0.21;100.00;101194.84;5094959;28;20028;-76
2023/01/22 00:04:11;;;;;;;99.72;31.65;;;;;;;0.29;100.00;101201.28;5094612;28;20024;-77
2023/01/22 00:06:37;;;;;;;101.03;34.20;;;;;;;0.29;100.00;101188.03;5093366;28;20461;-77
2023/01/22 00:09:02;;;;;;;105.40;32.00;;;;;;;0.24;100.00;101179.19;5094360;28;20093;-77
2023/01/22 00:11:28;;;;;;;86.40;30.60;;;;;;;0.27;100.00;101186.84;5094460;28;20035;-76
2023/01/22 00:13:53;;;;;;;103.50;30.85;;;;;;;0.14;100.00;101186.41;5094020;28;20372;-77
2023/01/22 00:16:19;;;;;;;94.05;30.65;;;;;;;0.11;100.00;101190.03;5094363;28;20024;-76
2023/01/22 00:18:44;;;;;;;88.53;31.73;;;;;;;0.22;100.00;101198.47;5094487;28;20418;-76
2023/01/22 00:21:11;;;;;;;90.10;32.05;;;;;;;0.38;100.00;101210.09;5094179;28;20480;-77
2023/01/22 00:23:37;;;;;;;91.57;32.22;;;;;;;0.43;100.00;101201.28;5075896;28;20024;-77
2023/01/22 00:26:12;;;;;;;100.75;29.05;;;;;;;0.32;100.00;101197.69;5094288;28;20031;-77
2023/01/22 00:28:40;;;;;;;85.88;30.02;;;;;;;0.27;100.00;101195.25;5094360;28;20020;-76
2023/01/22 00:31:05;;;;;;;87.32;30.05;;;;;;;0.22;100.00;101201.28;5094198;28;20092;-77
2023/01/22 00:33:32;;;;;;;85.57;32.67;;;;;;;0.21;100.00;101206.09;5093876;28;20614;-77
2023/01/22 00:36:05;;;;;;;86.35;30.70;;;;;;;0.26;100.00;101213.31;5094044;28;20043;-76
2023/01/22 00:38:31;;;;;;;75.97;29.25;;;;;;;0.21;100.00;101217.34;5093768;28;20028;-76
2023/01/22 00:41:00;;;;;;;88.47;30.58;;;;;;;0.15;100.00;101210.50;5094151;28;20020;-76
2023/01/22 00:43:25;;;;;;;85.70;31.85;;;;;;;0.16;100.00;101212.09;5093867;28;20411;-76
2023/01/22 00:45:51;;;;;;;82.85;29.65;;;;;;;0.14;100.00;101212.50;5093911;28;20024;-76
2023/01/22 00:48:16;;;;;;;86.28;30.98;;;;;;;0.17;100.00;101216.53;5094113;28;20028;-76
2023/01/22 00:50:41;;;;;;;82.28;28.08;;;;;;;0.29;100.00;101229.38;5093974;28;20074;-76
2023/01/22 00:53:07;;;;;;;90.10;30.75;;;;;;;0.45;100.00;101221.38;5093644;28;20099;-77
2023/01/22 00:55:32;;;;;;;81.72;29.20;;;;;;;0.49;100.00;101225.78;5093967;28;20058;-76
2023/01/22 00:57:58;;;;;;;72.40;27.48;;;;;;;0.50;100.00;101221.78;5094388;28;20065;-76
2023/01/22 01:00:23;;;;;;;77.10;30.25;;;;;;;0.46;100.00;101226.59;5093866;28;20020;-77
2023/01/22 01:05:33;;;;;;;80.53;29.55;;;;;;;0.56;100.00;101222.19;5093393;28;20035;-77
2023/01/22 01:07:58;;;;;;;78.07;28.67;;;;;;;0.47;100.00;101231.00;5093764;28;20024;-76
2023/01/22 01:10:23;;;;;;;74.78;28.60;;;;;;;0.38;100.00;101244.63;5093731;28;20024;-77
2023/01/22 01:12:49;;;;;;;71.28;28.10;;;;;;;0.42;100.00;101241.81;5093712;28;20541;-76
2023/01/22 01:15:14;;;;;;;67.00;26.42;;;;;;;0.41;100.00;101234.63;5094069;28;20024;-76
2023/01/22 01:17:40;;;;;;;77.32;30.00;;;;;;;0.44;100.00;101237.41;5093673;28;20050;-76
2023/01/22 01:20:05;;;;;;;80.20;32.35;;;;;;;0.18;100.00;101218.13;5093700;28;20480;-75
2023/01/22 01:22:31;;;;;;;76.72;27.38;;;;;;;0.36;100.00;101249.88;5092307;28;20116;-77
2023/01/22 01:24:56;;;;;;;74.07;28.77;;;;;;;0.50;100.00;101251.88;5093734;28;20049;-76
2023/01/22 01:27:22;;;;;;;68.22;28.83;;;;;;;0.53;100.00;101249.06;5096055;28;20067;-76
2023/01/22 01:29:47;;;;;;;62.08;25.00;;;;;;;0.41;100.00;101262.72;5097482;28;20024;-76
2023/01/22 01:32:12;;;;;;;75.13;28.00;;;;;;;0.40;100.00;101263.94;5097483;28;20529;-75
2023/01/22 01:34:38;;;;;;;68.30;26.92;;;;;;;0.37;100.00;101259.13;5097665;28;20028;-76
2023/01/22 01:37:03;;;;;;;72.18;29.02;;;;;;;0.44;100.00;101265.53;5097455;28;20481;-76
2023/01/22 01:39:28;;;;;;;64.65;27.77;;;;;;;0.29;100.00;101269.53;5097668;28;20016;-76
2023/01/22 01:41:54;;;;;;;69.60;27.35;;;;;;;0.23;100.00;101256.25;5097854;28;20024;-76
2023/01/22 01:44:22;;;;;;;69.65;27.65;;;;;;;0.26;100.00;101263.91;5097376;28;20120;-77
2023/01/22 01:46:54;;;;;;;69.75;27.88;;;;;;;0.25;100.00;101265.91;5097274;28;20030;-76
2023/01/22 01:49:29;;;;;;;70.72;29.35;;;;;;;0.17;100.00;101262.28;5095641;28;20046;-75
2023/01/22 01:51:58;;;;;;;70.53;28.42;;;;;;;0.25;100.00;101267.91;5097377;28;20036;-76
2023/01/22 01:54:24;;;;;;;62.05;26.17;;;;;;;0.33;100.00;101261.91;5097278;28;20441;-76
2023/01/22 01:56:52;;;;;;;70.03;27.92;;;;;;;0.32;100.00;101267.94;5097043;28;20031;-76
2023/01/22 01:59:18;;;;;;;66.00;26.33;;;;;;;0.26;100.00;101264.72;5095978;28;20028;-76
2023/01/22 02:01:49;;;;;;;74.13;28.52;;;;;;;0.24;100.00;101280.34;5097339;28;20024;-75
2023/01/22 02:04:14;;;;;;;66.93;30.45;;;;;;;0.22;100.00;101280.75;5078818;28;20118;-76
2023/01/22 02:06:40;;;;;;;87.07;28.80;;;;;;;0.24;100.00;101283.16;5097119;28;20498;-76
2023/01/22 02:09:05;;;;;;;62.97;28.33;;;;;;;0.22;100.00;101289.16;5096913;28;20032;-76
2023/01/22 02:11:31;;;;;;;72.43;28.35;;;;;;;0.16;100.00;101277.53;5095605;28;20031;-76
2023/01/22 02:14:00;;;;;;;73.00;29.30;;;;;;;0.17;100.00;101287.56;5079059;28;20024;-76
2023/01/22 02:16:25;;;;;;;64.90;27.73;;;;;;;0.25;100.00;101285.59;5096987;28;20100;-76
2023/01/22 02:18:51;;;;;;;72.20;32.42;;;;;;;0.12;100.00;101287.16;5096815;28;20106;-76
2023/01/22 02:21:38;;;;;;;70.30;30.70;;;;;;;0.04;100.00;101283.53;5096792;28;20384;-76
2023/01/22 02:24:07;;;;;;;71.05;30.88;;;;;;;0.03;100.00;101295.16;5096874;28;20465;-76
2023/01/22 02:26:33;;;;;;;69.72;28.85;;;;;;;0.04;100.00;101291.94;5096744;28;20110;-76
2023/01/22 02:28:58;;;;;;;84.43;36.00;;;;;;;0.06;100.00;101292.38;5096539;28;20111;-76
2023/01/22 02:31:23;;;;;;;76.10;30.02;;;;;;;0.04;100.00;101300.38;5096556;28;20210;-76
2023/01/22 02:33:49;;;;;;;92.43;35.08;;;;;;;0.03;100.00;101298.75;5096378;28;20094;-76
2023/01/22 02:36:15;;;;;;;77.15;31.65;;;;;;;0.02;100.00;101302.75;5096331;28;20495;-77
2023/01/22 02:38:40;;;;;;;86.68;32.88;;;;;;;0.20;100.00;101310.47;5096334;28;20023;-76
2023/01/22 02:41:06;;;;;;;79.65;32.78;;;;;;;0.30;100.00;101295.63;5096207;28;20028;-77
2023/01/22 02:43:31;;;;;;;68.05;28.00;;;;;;;0.43;100.00;101300.47;5078356;28;20038;-77
2023/01/22 02:45:57;;;;;;;64.97;29.65;;;;;;;0.52;100.00;101294.44;5096222;28;20043;-76
2023/01/22 02:48:22;;;;;;;70.35;28.55;;;;;;;0.42;100.00;101278.38;5096243;28;20056;-76
2023/01/22 02:50:48;;;;;;;69.22;26.75;;;;;;;0.53;100.00;101298.88;5096429;28;20441;-76
2023/01/22 02:53:13;;;;;;;74.00;28.67;;;;;;;0.45;100.00;101298.06;5096024;28;20035;-78
2023/01/22 02:55:38;;;;;;;71.60;28.20;;;;;;;0.36;100.00;101303.28;5096162;28;20016;-75
2023/01/22 02:58:04;;;;;;;69.90;27.23;;;;;;;0.24;100.00;101297.22;5096102;28;20464;-77
2023/01/22 03:00:30;;;;;;;66.18;27.70;;;;;;;0.14;100.00;101310.84;5095755;28;20358;-76
2023/01/22 03:02:55;;;;;;;64.22;26.95;;;;;;;0.24;100.00;101311.25;5077642;28;20028;-76
2023/01/22 03:05:20;;;;;;;67.25;28.38;;;;;;;0.22;100.00;101310.88;5095997;28;20032;-76
2023/01/22 03:07:46;;;;;;;62.58;28.35;;;;;;;0.14;100.00;101308.03;5095774;28;20425;-76
2023/01/22 03:10:17;;;;;;;66.85;28.48;;;;;;;0.14;100.00;101307.22;5095884;28;20483;-76
2023/01/22 03:23:59;;;;;;;67.07;28.48;;;;;;;0.35;100.00;101318.53;5013382;28;20387;-76
2023/01/22 03:26:27;;;;;;;71.32;27.73;;;;;;;0.29;100.00;101317.31;5013810;28;20029;-76
2023/01/22 03:28:53;;;;;;;71.80;29.30;;;;;;;0.29;100.00;101324.94;5052305;28;20117;-77
2023/01/22 03:31:18;;;;;;;65.90;28.60;;;;;;;0.23;100.00;101324.50;5095171;28;20032;-76
2023/01/22 03:33:44;;;;;;;69.05;29.88;;;;;;;0.23;100.00;101320.91;5094819;28;20104;-76
2023/01/22 03:36:12;;;;;;;62.75;27.88;;;;;;;0.23;100.00;101324.50;5095151;28;20028;-76
2023/01/22 03:38:38;;;;;;;65.35;27.52;;;;;;;0.25;100.00;101327.75;5095081;28;20028;-77
2023/01/22 03:41:06;;;;;;;66.18;26.80;;;;;;;0.25;100.00;101324.13;5077192;28;20024;-79
2023/01/22 03:43:32;;;;;;;64.65;27.25;;;;;;;0.24;100.00;101320.50;5095527;28;20526;-76
2023/01/22 03:46:05;;;;;;;73.50;28.38;;;;;;;0.16;100.00;101322.50;5095554;28;20099;-76
2023/01/22 03:48:31;;;;;;;59.22;25.55;;;;;;;0.17;100.00;101324.09;5096106;28;20032;-77
2023/01/22 03:51:12;;;;;;;65.03;27.65;;;;;;;0.13;100.00;101325.28;5100788;28;20381;-76
2023/01/22 03:53:38;;;;;;;63.13;28.17;;;;;;;0.09;100.00;101325.28;5100094;28;20028;-76
2023/01/22 03:56:06;;;;;;;61.65;26.35;;;;;;;0.07;100.00;101330.47;5098178;28;20032;-76
2023/01/22 03:58:32;;;;;;;72.25;27.92;;;;;;;0.11;100.00;101338.94;5095180;28;20048;-77
2023/01/22 04:01:09;;;;;;;68.53;28.77;;;;;;;0.10;100.00;101340.13;5095225;28;20386;-76
2023/01/22 04:03:35;;;;;;;76.68;31.80;;;;;;;0.06;100.00;101323.28;5094865;28;20024;-76
2023/01/22 04:06:01;;;;;;;66.10;29.13;;;;;;;0.10;100.00;101326.09;5095075;28;20036;-77
2023/01/22 04:08:29;;;;;;;70.63;27.40;;;;;;;0.18;100.00;101338.94;5095227;28;20032;-76
2023/01/22 04:10:55;;;;;;;69.63;29.33;;;;;;;0.21;100.00;101343.78;5094556;28;20387;-76
2023/01/22 04:13:21;;;;;;;69.55;30.20;;;;;;;0.20;100.00;101352.59;5094699;28;20031;-76
2023/01/22 04:15:46;;;;;;;75.10;29.80;;;;;;;0.18;100.00;101353.81;5094548;28;20020;-76
2023/01/22 04:18:12;;;;;;;68.15;29.38;;;;;;;0.12;100.00;101357.41;5094957;28;20024;-76
2023/01/22 04:20:38;;;;;;;70.60;29.30;;;;;;;0.16;100.00;101350.59;5094613;28;20056;-76
2023/01/22 04:23:04;;;;;;;67.15;28.52;;;;;;;0.17;100.00;101357.81;5076194;28;20032;-77
2023/01/22 04:25:30;;;;;;;60.20;28.70;;;;;;;0.29;100.00;101347.41;5094306;28;20024;-77
2023/01/22 04:27:55;;;;;;;68.88;27.00;;;;;;;0.31;100.00;101345.84;5094105;28;20032;-76
2023/01/22 04:30:20;;;;;;;69.10;27.27;;;;;;;0.26;100.00;101339.78;5094471;28;20031;-76
2023/01/22 04:32:46;;;;;;;69.03;27.52;;;;;;;0.27;100.00;101349.84;5072453;28;20048;-77
2023/01/22 04:35:11;;;;;;;57.95;26.17;;;;;;;0.22;100.00;101345.38;5073997;28;20024;-77
2023/01/22 04:37:37;;;;;;;70.93;28.08;;;;;;;0.17;100.00;101338.13;5074084;28;20418;-77
2023/01/22 04:40:04;;;;;;;67.45;26.13;;;;;;;0.17;100.00;101346.56;5073968;28;20059;-76
2023/01/22 04:42:31;;;;;;;69.55;28.55;;;;;;;0.15;100.00;101343.38;5073669;28;20093;-77
2023/01/22 04:44:56;;;;;;;58.70;24.52;;;;;;;0.19;100.00;101340.56;5074282;28;20032;-75
2023/01/22 04:47:22;;;;;;;61.28;27.65;;;;;;;0.28;100.00;101345.81;5073959;28;20035;-76
2023/01/22 04:49:48;;;;;;;65.32;27.00;;;;;;;0.41;100.00;101336.63;5074118;28;20086;-76
2023/01/22 04:52:13;;;;;;;63.50;29.60;;;;;;;0.43;100.00;101353.88;5073753;28;20032;-76
2023/01/22 04:54:38;;;;;;;54.22;24.80;;;;;;;0.31;100.00;101350.66;5073786;28;20462;-76
2023/01/22 04:57:04;;;;;;;63.60;26.30;;;;;;;0.33;100.00;101346.22;5072314;28;20024;-75
2023/01/22 04:59:30;;;;;;;54.65;25.58;;;;;;;0.30;100.00;101346.22;5072517;28;20016;-77
2023/01/22 05:01:55;;;;;;;58.65;24.45;;;;;;;0.14;100.00;101353.00;5073795;28;20051;-76
2023/01/22 05:04:20;;;;;;;56.38;23.85;;;;;;;0.04;100.00;101359.38;5073724;28;20055;-76
2023/01/22 05:06:46;;;;;;;58.35;24.55;;;;;;;0.01;100.00;101362.19;5073792;28;20016;-76
2023/01/22 05:09:12;;;;;;;49.95;23.42;;;;;;;0.02;100.00;101366.59;5073919;28;20031;-75
2023/01/22 05:11:37;;;;;;;56.33;25.27;;;;;;;0.02;100.00;101373.00;5073660;28;20024;-75
2023/01/22 05:14:03;;;;;;;57.75;24.65;;;;;;;0.00;100.00;101372.59;5073344;28;20116;-76
2023/01/22 05:16:28;;;;;;;54.33;24.40;;;;;;;0.07;100.00;101369.03;5073445;28;20025;-76
2023/01/22 05:18:54;;;;;;;53.80;22.48;;;;;;;0.15;100.00;101376.28;5073621;28;20146;-76
2023/01/22 05:21:19;;;;;;;48.67;23.75;;;;;;;0.15;100.00;101379.09;5073704;28;20081;-77
2023/01/22 05:23:45;;;;;;;52.90;23.80;;;;;;;0.12;100.00;101379.88;5073326;28;20033;-76
2023/01/22 05:26:10;;;;;;;52.33;21.70;;;;;;;0.00;100.00;101395.06;5073162;28;20099;-76
2023/01/22 05:28:35;;;;;;;53.47;22.40;;;;;;;-0.07;100.00;101397.84;5073526;28;20032;-76
2023/01/22 05:31:01;;;;;;;42.67;18.80;;;;;;;-0.02;100.00;101397.47;5073731;28;20052;-76
2023/01/22 05:33:30;;;;;;;56.65;22.20;;;;;;;-0.02;100.00;101405.09;5084020;28;20044;-76
2023/01/22 05:35:57;;;;;;;50.92;20.33;;;;;;;0.01;100.00;101415.56;5093470;28;20384;-77
2023/01/22 05:38:22;;;;;;;47.25;19.90;;;;;;;0.10;100.00;101410.38;5093728;28;20019;-76
2023/01/22 05:40:48;;;;;;;41.58;19.48;;;;;;;0.10;100.00;101419.63;5093619;28;20523;-77
2023/01/22 05:43:13;;;;;;;43.22;19.60;;;;;;;-0.02;100.00;101421.94;5093360;28;20380;-77
2023/01/22 05:45:39;;;;;;;40.80;19.67;;;;;;;0.01;100.00;101421.97;5093378;28;20027;-77
2023/01/22 05:48:04;;;;;;;42.40;19.98;;;;;;;0.00;100.00;101411.94;5093332;28;20035;-77
2023/01/22 05:50:30;;;;;;;43.00;19.33;;;;;;;-0.05;100.00;101414.31;5093303;28;20032;-76
2023/01/22 05:52:55;;;;;;;40.17;19.20;;;;;;;-0.05;100.00;101414.31;5093403;28;20024;-76
2023/01/22 05:55:21;;;;;;;35.45;18.38;;;;;;;-0.08;100.00;101410.28;5093112;28;20144;-76
2023/01/22 05:57:46;;;;;;;33.97;17.15;;;;;;;-0.06;100.00;101409.88;5075160;28;20020;-76
2023/01/22 06:00:12;;;;;;;28.98;15.88;;;;;;;-0.23;100.00;101393.75;5093399;28;20366;-76
2023/01/22 06:02:38;;;;;;;31.23;15.70;;;;;;;-0.11;100.00;101411.06;5093711;28;20098;-76
2023/01/22 06:05:03;;;;;;;32.67;14.38;;;;;;;-0.07;100.00;101405.47;5092075;28;20174;-76
2023/01/22 06:07:30;;;;;;;32.25;14.70;;;;;;;-0.09;100.00;101410.69;5093284;28;20024;-76
2023/01/22 06:09:55;;;;;;;26.70;12.57;;;;;;;-0.04;100.00;101413.13;5092958;28;20024;-76
2023/01/22 06:12:21;;;;;;;31.55;13.98;;;;;;;-0.04;100.00;101421.53;5093769;28;20095;-76
2023/01/22 06:14:46;;;;;;;21.25;12.07;;;;;;;-0.07;100.00;101419.50;5078866;28;20453;-76
2023/01/22 06:17:12;;;;;;;28.60;12.82;;;;;;;-0.05;100.00;101419.94;5097117;28;20024;-76
2023/01/22 06:19:38;;;;;;;21.50;10.98;;;;;;;-0.08;100.00;101420.72;5096827;28;20350;-76
2023/01/22 06:22:03;;;;;;;23.10;11.07;;;;;;;0.03;100.00;101419.56;5096899;28;20423;-75
2023/01/22 06:24:29;;;;;;;22.70;10.77;;;;;;;0.05;100.00;101403.13;5096616;28;20044;-76
2023/01/22 06:26:55;;;;;;;26.65;12.90;;;;;;;0.04;100.00;101420.38;5096841;28;20019;-76
2023/01/22 06:29:20;;;;;;;24.73;11.82;;;;;;;0.10;100.00;101424.44;5096638;28;20047;-76
2023/01/22 06:31:45;;;;;;;23.00;10.85;;;;;;;0.25;100.00;101428.91;5096680;28;20449;-76
2023/01/22 06:34:11;;;;;;;20.73;11.43;;;;;;;0.24;100.00;101415.25;5096249;28;20052;-76
2023/01/22 06:36:38;;;;;;;18.73;9.65;;;;;;;0.33;100.00;101440.97;5096350;28;20051;-77
2023/01/22 06:39:04;;;;;;;18.67;10.82;;;;;;;0.15;100.00;101435.28;5096433;28;20016;-76
2023/01/22 06:41:29;;;;;;;23.23;11.40;;;;;;;0.15;100.00;101435.28;5096535;28;20381;-76
2023/01/22 06:43:54;;;;;;;20.30;10.52;;;;;;;0.18;100.00;101437.31;5095324;28;20028;-77
2023/01/22 06:46:20;;;;;;;19.27;10.88;;;;;;;0.20;100.00;101431.28;5096105;28;20032;-76
2023/01/22 06:48:45;;;;;;;26.67;13.10;;;;;;;0.26;100.00;101436.16;5096322;28;20042;-77
2023/01/22 06:51:11;;;;;;;22.63;11.98;;;;;;;0.30;100.00;101434.16;5096017;28;20039;-75
2023/01/22 06:53:37;;;;;;;25.23;12.95;;;;;;;0.39;100.00;101437.41;5096013;28;20027;-76
2023/01/22 06:56:03;;;;;;;22.15;11.15;;;;;;;0.45;100.00;101437.84;5096292;28;20381;-76
2023/01/22 06:58:28;;;;;;;40.50;17.95;;;;;;;0.48;100.00;101437.84;5077978;28;20053;-76
2023/01/22 07:00:54;;;;;;;39.80;17.88;;;;;;;0.61;100.00;101449.53;5095868;28;20377;-76
2023/01/22 07:03:19;;;;;;;27.25;14.57;;;;;;;0.67;100.00;101447.94;5077914;28;20039;-76
2023/01/22 07:05:44;;;;;;;24.13;13.70;;;;;;;0.79;100.00;101455.22;5096094;28;20039;-76
2023/01/22 07:08:13;;;;;;;19.15;11.45;;;;;;;0.85;100.00;101464.88;5077828;28;20028;-77
2023/01/22 07:10:39;;;;;;;20.98;11.75;;;;;;;0.78;100.00;101450.78;5095928;28;20097;-77
2023/01/22 07:13:06;;;;;;;18.15;10.27;;;;;;;0.86;100.00;101470.09;5095949;28;20063;-76
2023/01/22 07:15:32;;;;;;;16.92;9.35;;;;;;;0.85;100.00;101473.31;5095696;28;20024;-75
2023/01/22 07:17:57;;;;;;;21.33;11.25;;;;;;;0.87;100.00;101477.34;5095674;28;20107;-76
2023/01/22 07:20:23;;;;;;;28.52;14.50;;;;;;;0.95;100.00;101476.16;5095571;28;20028;-77
2023/01/22 07:22:50;;;;;;;35.42;16.65;;;;;;;0.91;100.00;101478.16;5095405;28;20444;-76
2023/01/22 07:25:15;;;;;;;28.40;14.35;;;;;;;0.99;100.00;101474.16;5094744;28;20111;-76
2023/01/22 07:27:41;;;;;;;24.38;12.27;;;;;;;1.01;100.00;101479.38;5095384;28;20099;-77
2023/01/22 07:30:07;;;;;;;23.42;12.70;;;;;;;1.04;100.00;101475.78;5095417;28;20051;-77
2023/01/22 07:32:34;;;;;;;21.42;11.73;;;;;;;1.06;100.00;101478.22;5094949;28;20447;-76
2023/01/22 07:34:59;;;;;;;22.23;11.80;;;;;;;1.09;100.00;101480.22;5095499;28;20040;-76
2023/01/22 07:37:24;;;;;;;19.40;11.82;;;;;;;1.06;100.00;101490.25;5095032;28;20061;-76
2023/01/22 07:39:50;;;;;;;28.38;12.77;;;;;;;1.09;100.00;101485.84;5095190;28;20102;-77
2023/01/22 07:42:16;;;;;;;20.42;12.10;;;;;;;1.21;100.00;101496.69;5095016;28;20020;-76
2023/01/22 07:44:41;;;;;;;28.63;13.52;;;;;;;1.20;100.00;101501.56;5095027;28;20024;-77
2023/01/22 07:47:07;;;;;;;23.63;12.70;;;;;;;1.24;100.00;101501.56;5095157;28;20059;-76
2023/01/22 07:49:33;;;;;;;25.48;13.90;;;;;;;1.17;100.00;101512.78;5094835;28;20385;-75
2023/01/22 07:51:59;;;;;;;25.33;14.40;;;;;;;1.15;100.00;101512.41;5094866;28;20031;-76
2023/01/22 07:54:24;;;;;;;26.17;14.63;;;;;;;1.08;100.00;101510.34;5076945;28;20020;-77
2023/01/22 07:56:49;;;;;;;31.83;16.15;;;;;;;0.97;100.00;101515.16;5096602;28;20023;-76
2023/01/22 07:59:15;;;;;;;32.60;16.60;;;;;;;0.92;100.00;101521.97;5094854;28;20071;-76
2023/01/22 08:01:40;;;;;;;40.05;18.05;;;;;;;0.81;100.00;101515.50;5094851;28;20028;-76
2023/01/22 08:04:06;;;;;;;42.28;19.42;;;;;;;0.73;100.00;101519.50;5094492;28;20028;-76
2023/01/22 08:06:31;;;;;;;44.88;19.10;;;;;;;0.77;100.00;101513.88;5094804;28;20062;-74
2023/01/22 08:09:00;;;;;;;35.83;18.17;;;;;;;0.85;100.00;101509.91;5094632;28;20111;-77
2023/01/22 08:11:26;;;;;;;35.70;17.80;;;;;;;0.90;100.00;101506.69;5094504;28;20023;-76
2023/01/22 08:13:51;;;;;;;39.75;18.58;;;;;;;0.89;100.00;101511.50;5094817;28;20040;-77
2023/01/22 08:16:17;;;;;;;35.92;18.67;;;;;;;0.85;100.00;101516.34;5094697;28;20035;-76
2023/01/22 08:18:43;;;;;;;44.42;22.13;;;;;;;0.94;100.00;101521.56;5094454;28;20020;-77
2023/01/22 08:21:08;;;;;;;46.22;20.55;;;;;;;0.87;100.00;101508.28;5094475;28;20493;-76
2023/01/22 08:23:34;;;;;;;52.05;22.73;;;;;;;0.88;100.00;101509.09;5094432;28;20453;-76
2023/01/22 08:26:00;;;;;;;50.55;22.38;;;;;;;0.92;100.00;101509.91;5094298;28;20028;-77
2023/01/22 08:28:26;;;;;;;58.15;23.45;;;;;;;0.87;100.00;101513.09;5094593;28;20056;-77
2023/01/22 08:30:59;;;;;;;72.70;27.58;;;;;;;0.76;100.00;101529.97;5094128;28;20077;-77
2023/01/22 08:33:25;;;;;;;76.65;30.58;;;;;;;0.78;100.00;101532.38;5093709;28;20050;-78
2023/01/22 08:35:50;;;;;;;79.45;31.90;;;;;;;0.76;100.00;101531.97;5093645;28;20031;-76
2023/01/22 08:38:16;;;;;;;96.35;34.42;;;;;;;0.74;100.00;101540.00;5092857;28;20012;-78
2023/01/22 08:40:41;;;;;;;74.28;29.65;;;;;;;0.74;100.00;101532.34;5094137;28;20020;-77
2023/01/22 08:43:06;;;;;;;71.80;27.40;;;;;;;0.75;100.00;101533.97;5094122;28;20035;-77
2023/01/22 08:45:32;;;;;;;62.35;26.88;;;;;;;0.66;100.00;101527.09;5094120;28;20103;-77
2023/01/22 08:47:59;;;;;;;67.03;26.45;;;;;;;0.75;100.00;101542.41;5093827;28;20107;-76
2023/01/22 08:50:25;;;;;;;62.10;28.52;;;;;;;0.82;100.00;101550.06;5093555;28;20071;-76
2023/01/22 08:52:51;;;;;;;53.28;23.92;;;;;;;0.86;100.00;101551.69;5093892;28;20412;-77
2023/01/22 08:55:16;;;;;;;38.63;20.05;;;;;;;0.86;100.00;101554.50;5093873;28;20473;-77
2023/01/22 08:57:41;;;;;;;45.38;22.23;;;;;;;0.84;100.00;101547.66;5093867;28;20020;-74
2023/01/22 09:00:08;;;;;;;49.47;22.65;;;;;;;0.78;100.00;101546.44;5075552;28;20024;-74
2023/01/22 09:02:34;;;;;;;47.45;23.73;;;;;;;0.86;100.00;101557.31;5075590;28;20056;-74
2023/01/22 09:04:59;;;;;;;45.05;21.33;;;;;;;0.66;100.00;101525.09;5075566;28;20024;-75
2023/01/22 09:07:25;;;;;;;47.05;20.48;;;;;;;0.79;100.00;101536.78;5092479;28;20488;-75
2023/01/22 09:09:50;;;;;;;44.78;19.30;;;;;;;0.56;100.00;101525.84;5093601;28;20077;-75
2023/01/22 09:12:15;;;;;;;37.90;18.83;;;;;;;0.63;100.00;101550.38;5075285;28;20054;-74
2023/01/22 09:14:41;;;;;;;36.70;18.88;;;;;;;0.61;100.00;101548.75;5093557;28;20032;-73
2023/01/22 09:17:06;;;;;;;37.78;17.52;;;;;;;0.73;100.00;101544.81;5093704;28;20035;-74
2023/01/22 09:19:32;;;;;;;38.22;17.88;;;;;;;1.12;100.00;101586.34;5075373;28;20023;-74
2023/01/22 09:21:57;;;;;;;35.45;16.23;;;;;;;1.02;100.00;101576.66;5093345;28;20434;-74
2023/01/22 09:24:22;;;;;;;42.17;18.35;;;;;;;0.74;100.00;101523.91;5075370;28;20024;-74
2023/01/22 09:26:48;;;;;;;40.72;19.60;;;;;;;0.88;100.00;101538.03;5075379;28;20419;-75
2023/01/22 09:29:13;;;;;;;46.88;22.38;;;;;;;1.05;100.00;101556.19;5093380;28;20465;-74
2023/01/22 09:31:39;;;;;;;38.15;19.13;;;;;;;0.94;100.00;101532.84;5075311;28;20020;-74
2023/01/22 09:34:04;;;;;;;47.97;21.83;;;;;;;1.12;100.00;101538.50;5093042;28;20063;-74
2023/01/22 09:36:30;;;;;;;41.38;18.15;;;;;;;1.39;100.00;101570.75;5075418;28;20454;-75
2023/01/22 09:38:56;;;;;;;38.20;18.35;;;;;;;1.41;100.00;101571.97;5075598;28;20373;-74
2023/01/22 09:41:29;;;;;;;41.85;19.50;;;;;;;1.22;100.00;101518.03;5093579;28;20050;-74
2023/01/22 09:44:02;;;;;;;37.67;16.02;;;;;;;1.41;100.00;101576.78;5075475;28;20083;-74
2023/01/22 09:46:33;;;;;;;35.17;17.27;;;;;;;1.44;100.00;101574.00;5092199;28;20035;-74
2023/01/22 09:49:20;;;;;;;42.25;19.55;;;;;;;1.50;100.00;101576.41;5061427;28;20115;-75
2023/01/22 09:51:54;;;;;;;48.13;20.15;;;;;;;1.35;100.00;101586.84;5097363;28;20093;-73
2023/01/22 09:54:19;;;;;;;39.50;18.77;;;;;;;1.22;100.00;101577.13;5095812;28;20065;-74
2023/01/22 09:56:48;;;;;;;34.88;16.25;;;;;;;1.22;100.00;101579.94;5078531;28;20024;-75
2023/01/22 09:59:26;;;;;;;31.98;16.30;;;;;;;0.94;100.00;101541.28;5062396;28;20481;-74
2023/01/22 10:01:56;;;;;;;30.90;15.48;;;;;;;1.07;100.00;101581.91;5079230;28;20020;-74
2023/01/22 10:04:33;;;;;;;31.73;15.68;;;;;;;0.96;100.00;101581.88;5095955;28;20511;-76
2023/01/22 10:07:00;;;;;;;33.85;16.30;;;;;;;0.81;100.00;101568.16;5078848;28;20069;-74
2023/01/22 10:09:29;;;;;;;29.80;16.73;;;;;;;0.83;100.00;101548.84;5078532;28;20017;-73
2023/01/22 10:11:55;;;;;;;32.42;16.48;;;;;;;0.87;100.00;101578.63;5062219;28;20028;-75
2023/01/22 10:14:21;;;;;;;34.33;17.80;;;;;;;0.67;100.00;101584.94;5097102;28;20020;-75
2023/01/22 10:16:47;;;;;;;40.15;17.92;;;;;;;0.38;100.00;101544.59;5078588;28;20032;-75
2023/01/22 10:19:25;;;;;;;34.25;15.70;;;;;;;0.64;100.00;101569.69;5078563;28;20016;-75
2023/01/22 10:22:02;;;;;;;35.25;15.63;;;;;;;0.87;100.00;101580.63;5096830;28;20373;-74
2023/01/22 10:24:29;;;;;;;27.10;14.05;;;;;;;0.79;100.00;101574.16;5096969;28;20035;-73
2023/01/22 10:26:54;;;;;;;30.85;17.30;;;;;;;0.68;100.00;101573.31;5095352;28;20381;-75
2023/01/22 10:29:23;;;;;;;38.80;18.20;;;;;;;0.58;100.00;101566.44;5078202;28;20038;-75
2023/01/22 10:32:00;;;;;;;31.40;15.80;;;;;;;0.43;100.00;101530.19;5078449;28;20031;-75
2023/01/22 10:34:31;;;;;;;44.67;21.35;;;;;;;0.75;100.00;101558.47;5074428;28;20432;-74
2023/01/22 10:37:15;;;;;;;32.28;15.63;;;;;;;0.94;100.00;101580.66;5058380;28;20024;-74
2023/01/22 10:39:42;;;;;;;39.72;17.90;;;;;;;0.79;100.00;101560.09;5075158;28;20079;-74
2023/01/22 10:42:19;;;;;;;38.45;16.65;;;;;;;0.88;100.00;101585.06;5075178;28;20024;-74
2023/01/22 10:44:45;;;;;;;35.90;16.13;;;;;;;0.95;100.00;101585.09;5076196;28;20020;-74
2023/01/22 10:47:22;;;;;;;30.23;15.02;;;;;;;1.04;100.00;101593.97;5057956;28;20377;-74
2023/01/22 10:50:08;;;;;;;31.98;15.05;;;;;;;0.84;100.00;101567.34;5074413;28;20112;-75
2023/01/22 10:52:40;;;;;;;32.85;15.50;;;;;;;0.84;100.00;101561.72;5074847;28;20108;-75
2023/01/22 10:55:15;;;;;;;28.58;14.02;;;;;;;0.95;100.00;101563.41;5057892;28;20035;-75
2023/01/22 10:57:40;;;;;;;24.23;14.02;;;;;;;0.95;100.00;101574.66;5074515;28;20052;-75
2023/01/22 11:00:21;;;;;;;32.25;13.32;;;;;;;1.09;100.00;101587.97;5074591;28;20048;-75
2023/01/22 11:02:48;;;;;;;28.40;13.43;;;;;;;0.95;100.00;101579.47;5074508;28;20028;-74
2023/01/22 11:05:17;;;;;;;29.70;15.05;;;;;;;1.13;100.00;101590.78;5074347;28;20025;-74
2023/01/22 11:07:43;;;;;;;26.73;13.85;;;;;;;1.26;100.00;101592.84;5075476;28;20103;-75
2023/01/22 11:10:18;;;;;;;30.15;13.18;;;;;;;1.37;100.00;101596.50;5075358;28;20082;-74
2023/01/22 11:12:47;;;;;;;26.02;11.75;;;;;;;1.07;100.00;101575.47;5057634;28;20073;-75
2023/01/22 11:15:18;;;;;;;23.27;12.15;;;;;;;1.18;100.00;101610.91;5074075;28;20025;-74
2023/01/22 11:17:49;;;;;;;28.92;12.35;;;;;;;1.30;100.00;101595.69;5075544;28;20496;-74
2023/01/22 11:20:20;;;;;;;27.08;13.35;;;;;;;1.31;100.00;101606.53;5057282;28;20040;-74
2023/01/22 11:23:18;;;;;;;27.75;12.77;;;;;;;1.31;100.00;101586.81;5057351;28;20028;-74